Preview of NWS' New Version of Forecast
This preview is not operational and should not be used for support decisions.

Terminal Aerodrome Forecast (TAF)

Issued by National Weather Service (NWS)

                            
000
FTUS46 KMFR 172036 AAA
TAFRBG
TAF AMD
KRBG 172036Z 1721/1818 36008KT P6SM SKC
     FM172200 35010G18KT P6SM SKC
     FM180400 36005KT P6SM SKC
     FM181200 36002KT P6SM BKN010=